createdAt,value
2019-03-17T14:35:28.341Z,99.99
2019-03-17T14:36:27.232Z,99.99
2019-03-17T14:37:27.226Z,99.99
2019-03-17T14:38:27.234Z,99.99
2019-03-17T14:39:27.207Z,99.99
2019-03-17T14:40:27.195Z,99.99
2019-03-17T14:41:27.185Z,99.99
2019-03-17T14:42:27.182Z,99.99
2019-03-17T14:43:27.191Z,99.99
2019-03-17T14:44:27.159Z,98.79
2019-03-17T14:45:27.151Z,99.99
2019-03-17T14:46:27.161Z,99.99
2019-03-17T14:47:27.136Z,99.99
2019-03-17T14:48:27.134Z,99.99
2019-03-17T14:49:27.112Z,99.99
2019-03-17T14:50:27.100Z,99.99
2019-03-17T14:51:27.105Z,99.99
2019-03-17T14:52:27.080Z,98.32
2019-03-17T14:53:27.073Z,99.99
2019-03-17T14:54:27.060Z,99.99
2019-03-17T14:55:27.660Z,99.99
2019-03-17T14:56:27.053Z,88.60
2019-03-17T14:57:27.028Z,97.55
2019-03-17T14:58:27.032Z,98.50
2019-03-17T14:59:27.008Z,99.99
2019-03-17T15:00:27.004Z,99.99
2019-03-17T15:01:27.088Z,99.99
2019-03-17T15:02:26.989Z,99.99
2019-03-17T15:03:26.982Z,99.99
2019-03-17T15:04:26.964Z,99.99
2019-03-17T15:05:26.960Z,99.99
2019-03-17T15:06:26.949Z,99.99
2019-03-17T15:07:26.947Z,99.46
2019-03-17T15:08:26.932Z,99.99
2019-03-17T15:09:26.918Z,99.99
2019-03-17T15:10:26.926Z,98.69
2019-03-17T15:11:27.574Z,99.99
2019-03-17T15:12:26.898Z,99.99
2019-03-17T15:13:26.884Z,99.99
2019-03-17T15:14:26.873Z,99.99
2019-03-17T15:15:26.863Z,97.60
2019-03-17T15:16:26.850Z,99.79
2019-03-17T15:17:26.846Z,95.89
2019-03-17T15:18:26.912Z,99.99
2019-03-17T15:19:26.828Z,99.99
2019-03-17T15:20:26.831Z,99.99
2019-03-17T15:21:26.808Z,94.08
2019-03-17T15:22:26.796Z,99.99
2019-03-17T15:23:26.790Z,99.99
2019-03-17T15:24:27.673Z,97.41
2019-03-17T15:25:26.769Z,99.99
2019-03-17T15:26:26.755Z,99.99
2019-03-17T15:27:26.742Z,99.99
2019-03-17T15:28:26.739Z,99.99
2019-03-17T15:29:26.732Z,99.99
2019-03-17T15:30:26.720Z,99.99
2019-03-17T15:31:26.713Z,99.99
2019-03-17T15:32:26.705Z,99.99
2019-03-17T15:33:26.688Z,99.99
2019-03-17T15:34:26.683Z,99.99
2019-03-17T15:35:26.687Z,99.99
2019-03-17T15:36:26.664Z,99.99
2019-03-17T15:37:26.652Z,99.99
2019-03-17T15:38:26.642Z,99.99
2019-03-17T15:39:26.633Z,99.99
2019-03-17T15:40:26.629Z,99.99
2019-03-17T15:41:26.610Z,99.99
2019-03-17T15:42:26.605Z,99.99
2019-03-17T15:43:28.238Z,99.99
2019-03-17T15:44:26.583Z,99.99
2019-03-17T15:45:26.572Z,99.99
2019-03-17T15:46:26.575Z,99.99
2019-03-17T15:47:26.557Z,99.99
2019-03-17T15:48:26.551Z,99.99
2019-03-17T15:49:26.540Z,99.99
2019-03-17T15:50:26.534Z,99.99
2019-03-17T15:51:26.528Z,99.99
2019-03-17T15:52:26.513Z,99.99
2019-03-17T15:53:26.505Z,99.99
2019-03-17T15:54:26.496Z,99.99
2019-03-17T15:55:26.479Z,99.99
2019-03-17T15:56:26.468Z,99.99
2019-03-17T15:57:26.491Z,99.99
2019-03-17T15:58:26.455Z,99.99
2019-03-17T15:59:26.441Z,99.99
2019-03-17T16:00:27.118Z,99.99
2019-03-17T16:01:26.432Z,99.99
2019-03-17T16:02:26.415Z,99.99
2019-03-17T16:03:26.404Z,99.99
2019-03-17T16:04:26.394Z,99.99
2019-03-17T16:05:26.443Z,99.99
2019-03-17T16:06:26.376Z,99.99
2019-03-17T16:07:26.388Z,97.22
2019-03-17T16:08:26.359Z,94.37
2019-03-17T16:09:28.642Z,99.99
2019-03-17T16:10:26.333Z,98.36
2019-03-17T16:11:30.805Z,90.94
2019-03-17T16:12:26.338Z,80.30
2019-03-17T16:13:26.303Z,83.91
2019-03-17T16:14:26.414Z,86.38
2019-03-17T16:15:26.290Z,73.84
2019-03-17T16:16:26.292Z,71.66
2019-03-17T16:17:26.265Z,86.95
2019-03-17T16:18:26.262Z,80.87
2019-03-17T16:19:26.243Z,82.10
2019-03-17T16:20:26.280Z,82.68
2019-03-17T16:21:26.226Z,74.22
2019-03-17T16:22:26.214Z,76.59
2019-03-17T16:23:26.201Z,82.68
2019-03-17T16:24:26.192Z,76.97
2019-03-17T16:25:26.184Z,93.99
2019-03-17T16:26:26.174Z,79.06
2019-03-17T16:27:26.241Z,71.08
2019-03-17T16:28:26.153Z,80.77
2019-03-17T16:29:26.131Z,77.64
2019-03-17T16:30:26.121Z,76.03
2019-03-17T16:31:26.113Z,82.20
2019-03-17T16:32:26.105Z,90.56
2019-03-17T16:33:26.104Z,74.22
2019-03-17T16:34:26.086Z,84.20
2019-03-17T16:35:26.073Z,79.16
2019-03-17T16:36:26.057Z,85.58
2019-03-17T16:37:26.067Z,99.78
2019-03-17T16:38:26.048Z,92.90
2019-03-17T16:39:26.055Z,99.99
2019-03-17T16:40:26.023Z,90.75
2019-03-17T16:41:26.006Z,91.94
2019-03-17T16:42:26.028Z,93.13
2019-03-17T16:43:25.985Z,98.07
2019-03-17T16:44:26.213Z,99.99
2019-03-17T16:45:25.970Z,82.58
2019-03-17T16:46:25.961Z,86.38
2019-03-17T16:47:25.939Z,93.89
2019-03-17T16:48:25.953Z,94.84
2019-03-17T16:49:25.928Z,95.41
2019-03-17T16:50:25.925Z,99.99
2019-03-17T16:51:25.909Z,99.99
2019-03-17T16:52:25.901Z,87.24
2019-03-17T16:53:25.875Z,88.09
2019-03-17T16:54:25.876Z,91.80
2019-03-17T16:55:25.857Z,88.19
2019-03-17T16:56:25.842Z,84.10
2019-03-17T16:57:25.830Z,81.16
2019-03-17T16:58:25.820Z,95.46
2019-03-17T16:59:25.823Z,89.09
2019-03-17T17:00:25.818Z,99.99
2019-03-17T17:01:25.789Z,90.90
2019-03-17T17:02:25.774Z,90.61
2019-03-17T17:03:25.768Z,97.17
2019-03-17T17:04:25.760Z,87.10
2019-03-17T17:05:26.181Z,93.65
2019-03-17T17:06:25.733Z,87.19
2019-03-17T17:07:25.741Z,93.84
2019-03-17T17:08:25.725Z,99.99
2019-03-17T17:09:25.709Z,90.14
2019-03-17T17:10:25.701Z,89.38
2019-03-17T17:11:25.696Z,91.19
2019-03-17T17:12:25.671Z,99.99
2019-03-17T17:13:25.664Z,99.99
2019-03-17T17:14:25.647Z,99.99
2019-03-17T17:15:25.641Z,99.99
2019-03-17T17:16:25.633Z,99.99
2019-03-17T17:17:25.623Z,91.28
2019-03-17T17:18:25.607Z,99.99
2019-03-17T17:19:25.637Z,94.03
2019-03-17T17:20:25.593Z,99.99
2019-03-17T17:21:25.576Z,99.99
2019-03-17T17:22:25.574Z,98.12
2019-03-17T17:23:25.566Z,88.81
2019-03-17T17:24:25.599Z,98.02
2019-03-17T17:25:25.528Z,99.44
2019-03-17T17:26:36.643Z,97.55
2019-03-17T17:27:25.510Z,89.47
2019-03-17T17:28:25.515Z,99.99
2019-03-17T17:29:25.486Z,86.43
2019-03-17T17:30:25.471Z,78.36
2019-03-17T17:31:25.459Z,93.18
2019-03-17T17:32:25.458Z,91.09
2019-03-17T17:33:27.847Z,84.34
2019-03-17T17:34:25.481Z,99.99
2019-03-17T17:35:25.417Z,99.99
2019-03-17T17:36:25.409Z,99.99
2019-03-17T17:37:25.404Z,99.99
2019-03-17T17:38:25.388Z,99.99
2019-03-17T17:39:26.220Z,98.21
2019-03-17T17:40:25.368Z,99.99
2019-03-17T17:41:25.354Z,99.99
2019-03-17T17:42:25.373Z,99.99
2019-03-17T17:43:25.334Z,99.99
2019-03-17T17:44:25.322Z,91.75
2019-03-17T17:45:25.306Z,99.54
2019-03-17T17:46:25.300Z,87.38
2019-03-17T17:47:25.285Z,88.15
2019-03-17T17:48:25.286Z,85.20
2019-03-17T17:49:25.268Z,85.77
2019-03-17T17:50:25.257Z,84.16
2019-03-17T17:51:25.243Z,82.16
2019-03-17T17:52:27.971Z,85.20
2019-03-17T17:53:25.229Z,89.95
2019-03-17T17:54:25.225Z,86.77
2019-03-17T17:55:25.201Z,82.88
2019-03-17T17:56:25.188Z,85.82
2019-03-17T17:57:25.187Z,71.86
2019-03-17T17:58:25.175Z,74.85
2019-03-17T17:59:25.175Z,71.86
2019-03-17T18:00:25.145Z,78.61
2019-03-17T18:01:25.133Z,82.21
2019-03-17T18:02:25.135Z,88.76
2019-03-17T18:03:25.108Z,98.16
2019-03-17T18:04:25.101Z,94.93
2019-03-17T18:05:25.088Z,80.51
2019-03-17T18:06:25.088Z,81.45
2019-03-17T18:07:25.067Z,92.56
2019-03-17T18:08:25.059Z,81.55
2019-03-17T18:09:25.044Z,96.74
2019-03-17T18:10:25.035Z,81.93
2019-03-17T18:11:25.031Z,83.92
2019-03-17T18:12:25.016Z,83.26
2019-03-17T18:13:24.997Z,86.68
2019-03-17T18:14:24.995Z,72.06
2019-03-17T18:15:24.982Z,69.02
2019-03-17T18:16:24.966Z,80.13
2019-03-17T18:17:24.963Z,71.01
2019-03-17T18:18:24.947Z,68.73
2019-03-17T18:19:24.933Z,84.87
2019-03-17T18:20:24.926Z,98.73
2019-03-17T18:21:24.916Z,99.99
2019-03-17T18:22:24.902Z,85.16
2019-03-17T18:23:24.906Z,80.79
2019-03-17T18:24:24.879Z,83.64
2019-03-17T18:25:24.881Z,92.28
2019-03-17T18:26:24.880Z,82.40
2019-03-17T18:27:24.861Z,74.90
2019-03-17T18:28:24.886Z,70.82
2019-03-17T18:29:24.842Z,77.09
2019-03-17T18:30:25.728Z,84.59
2019-03-17T18:31:24.855Z,99.99
2019-03-17T18:32:24.841Z,98.92
2019-03-17T18:33:24.779Z,99.99
2019-03-17T18:34:24.815Z,84.01
2019-03-17T18:35:25.767Z,94.46
2019-03-17T18:36:25.743Z,81.45
2019-03-17T18:37:24.799Z,80.69
2019-03-17T18:38:24.743Z,98.64
2019-03-17T18:39:24.713Z,82.12
2019-03-17T18:40:24.698Z,99.58
2019-03-17T18:41:25.237Z,87.49
2019-03-17T18:42:33.053Z,82.97
2019-03-17T18:43:24.720Z,84.21
2019-03-17T18:44:24.658Z,87.15
2019-03-17T18:45:24.644Z,84.92
2019-03-17T18:46:24.734Z,82.65
2019-03-17T18:47:24.619Z,84.36
2019-03-17T18:48:24.614Z,77.24
2019-03-17T18:49:24.601Z,82.08
2019-03-17T18:50:24.596Z,89.10
2019-03-17T18:51:25.282Z,82.46
2019-03-17T18:52:24.563Z,95.46
2019-03-17T18:53:24.554Z,94.23
2019-03-17T18:54:24.551Z,99.99
2019-03-17T18:55:24.532Z,91.38
2019-03-17T18:56:24.524Z,92.99
2019-03-17T18:57:25.242Z,86.72
2019-03-17T18:58:24.518Z,85.78
2019-03-17T18:59:24.490Z,87.68
2019-03-17T19:00:24.484Z,96.69
2019-03-17T19:01:24.481Z,88.15
2019-03-17T19:02:35.386Z,85.02
2019-03-17T19:03:24.447Z,86.35
2019-03-17T19:04:24.437Z,94.51
2019-03-17T19:05:24.424Z,94.23
2019-03-17T19:06:24.412Z,89.00
2019-03-17T19:07:24.394Z,86.63
2019-03-17T19:08:24.405Z,87.58
2019-03-17T19:09:24.375Z,90.24
2019-03-17T19:10:24.361Z,89.10
2019-03-17T19:11:24.345Z,84.55
2019-03-17T19:12:24.344Z,81.70
2019-03-17T19:13:24.327Z,87.01
2019-03-17T19:14:24.323Z,95.36
2019-03-17T19:15:24.306Z,84.07
2019-03-17T19:16:24.295Z,86.82
2019-03-17T19:17:24.289Z,97.74
2019-03-17T19:18:24.269Z,90.52
2019-03-17T19:19:24.254Z,90.81
2019-03-17T19:20:24.254Z,91.56
2019-03-17T19:21:24.236Z,86.72
2019-03-17T19:22:24.220Z,90.90
2019-03-17T19:23:24.221Z,88.43
2019-03-17T19:24:24.197Z,84.17
2019-03-17T19:25:24.186Z,86.07
2019-03-17T19:26:24.173Z,90.90
2019-03-17T19:27:24.166Z,81.60
2019-03-17T19:28:24.153Z,85.21
2019-03-17T19:29:24.146Z,82.74
2019-03-17T19:30:24.139Z,84.17
2019-03-17T19:31:24.118Z,84.45
2019-03-17T19:32:24.112Z,79.90
2019-03-17T19:33:24.102Z,86.72
2019-03-17T19:34:24.124Z,89.10
2019-03-17T19:35:24.083Z,99.39
2019-03-17T19:36:24.058Z,90.86
2019-03-17T19:37:24.048Z,99.99
2019-03-17T19:38:24.031Z,94.84
2019-03-17T19:39:24.024Z,82.65
2019-03-17T19:40:24.030Z,82.84
2019-03-17T19:41:24.003Z,81.60
2019-03-17T19:42:23.983Z,84.07
2019-03-17T19:43:23.970Z,78.75
2019-03-17T19:44:23.967Z,92.28
2019-03-17T19:45:23.965Z,83.84
2019-03-17T19:46:23.944Z,91.14
2019-03-17T19:47:23.928Z,85.64
2019-03-17T19:48:24.777Z,81.47
2019-03-17T19:49:23.918Z,79.57
2019-03-17T19:50:23.900Z,79.95
2019-03-17T19:51:23.893Z,79.76
2019-03-17T19:52:24.807Z,83.84
2019-03-17T19:53:23.859Z,85.64
2019-03-17T19:54:23.857Z,80.24
2019-03-17T19:55:23.840Z,77.96
2019-03-17T19:56:23.826Z,92.57
2019-03-17T19:57:23.815Z,93.61
2019-03-17T19:58:23.803Z,84.50
2019-03-17T19:59:23.797Z,83.55
2019-03-17T20:00:26.756Z,82.42
2019-03-17T20:01:23.782Z,81.94
2019-03-17T20:02:23.755Z,81.47
2019-03-17T20:03:23.744Z,84.88
2019-03-17T20:04:30.433Z,86.87
2019-03-17T20:05:23.724Z,81.94
2019-03-17T20:06:23.713Z,79.38
2019-03-17T20:07:23.702Z,76.34
2019-03-17T20:08:23.709Z,91.14
2019-03-17T20:09:23.676Z,79.85
2019-03-17T20:10:23.663Z,76.92
2019-03-17T20:11:25.687Z,82.51
2019-03-17T20:12:23.653Z,83.08
2019-03-17T20:13:23.655Z,80.71
2019-03-17T20:14:23.636Z,89.53
2019-03-17T20:15:23.605Z,91.61
2019-03-17T20:16:23.591Z,83.08
2019-03-17T20:17:23.587Z,86.68
2019-03-17T20:18:23.572Z,79.76
2019-03-17T20:19:23.577Z,89.53
2019-03-17T20:20:23.543Z,85.74
2019-03-17T20:21:23.529Z,89.06
2019-03-17T20:22:23.536Z,93.41
2019-03-17T20:23:24.273Z,86.21
2019-03-17T20:24:23.518Z,89.81
2019-03-17T20:25:23.488Z,91.99
2019-03-17T20:26:23.469Z,88.77
2019-03-17T20:27:23.478Z,95.98
2019-03-17T20:28:23.458Z,92.66
2019-03-17T20:29:23.433Z,90.29
2019-03-17T20:30:23.443Z,86.68
2019-03-17T20:31:23.426Z,86.40
2019-03-17T20:32:23.402Z,91.05
2019-03-17T20:33:23.391Z,86.40
2019-03-17T20:34:23.392Z,85.74
2019-03-17T20:35:23.420Z,81.94
2019-03-17T20:36:23.362Z,82.60
2019-03-17T20:37:23.347Z,83.74
2019-03-17T20:38:23.333Z,85.36
2019-03-17T20:39:23.324Z,85.07
2019-03-17T20:40:23.310Z,80.80
2019-03-17T20:41:23.290Z,79.85
2019-03-17T20:42:23.282Z,77.11
2019-03-17T20:43:34.289Z,77.01
2019-03-17T20:44:23.257Z,79.57
2019-03-17T20:45:23.251Z,77.96
2019-03-17T20:46:23.405Z,74.92
2019-03-17T20:47:23.226Z,77.39
2019-03-17T20:48:23.343Z,76.82
2019-03-17T20:49:23.861Z,76.92
2019-03-17T20:50:23.202Z,82.13
2019-03-17T20:51:23.181Z,76.63
2019-03-17T20:52:23.174Z,84.55
2019-03-17T20:53:23.146Z,80.57
2019-03-17T20:54:23.151Z,77.29
2019-03-17T20:55:23.140Z,85.60
2019-03-17T20:56:23.122Z,84.98
2019-03-17T20:57:23.106Z,82.56
2019-03-17T20:58:23.095Z,85.45
2019-03-17T20:59:23.084Z,80.67
2019-03-17T21:00:23.067Z,83.98
2019-03-17T21:01:23.065Z,81.24
2019-03-17T21:02:23.051Z,76.87
2019-03-17T21:03:23.041Z,86.45
2019-03-17T21:04:23.036Z,76.40
2019-03-17T21:05:23.012Z,76.68
2019-03-17T21:06:23.002Z,81.14
2019-03-17T21:07:22.985Z,82.60
2019-03-17T21:08:22.979Z,83.84
2019-03-17T21:09:22.958Z,84.31
2019-03-17T21:10:22.982Z,77.58
2019-03-17T21:11:22.945Z,82.51
2019-03-17T21:12:22.925Z,82.94
2019-03-17T21:13:22.914Z,84.74
2019-03-17T21:14:22.901Z,86.26
2019-03-17T21:15:22.894Z,82.75
2019-03-17T21:16:22.879Z,81.05
2019-03-17T21:17:22.863Z,80.95
2019-03-17T21:18:22.859Z,82.47
2019-03-17T21:19:22.842Z,81.81
2019-03-17T21:20:22.839Z,82.18
2019-03-17T21:21:22.822Z,78.77
2019-03-17T21:22:22.808Z,79.53
2019-03-17T21:23:22.787Z,79.63
2019-03-17T21:24:22.781Z,86.83
2019-03-17T21:25:22.764Z,85.60
2019-03-17T21:26:22.757Z,86.55
2019-03-17T21:27:22.745Z,79.63
2019-03-17T21:28:22.737Z,80.48
2019-03-17T21:29:22.729Z,82.66
2019-03-17T21:30:22.782Z,85.03
2019-03-17T21:31:22.692Z,86.26
2019-03-17T21:32:22.682Z,84.74
2019-03-17T21:33:22.669Z,80.76
2019-03-17T21:34:22.659Z,83.04
2019-03-17T21:35:22.645Z,91.57
2019-03-17T21:36:22.640Z,82.09
2019-03-17T21:37:22.618Z,85.78
2019-03-17T21:38:22.619Z,87.49
2019-03-17T21:39:22.613Z,84.46
2019-03-17T21:40:22.592Z,81.81
2019-03-17T21:41:22.572Z,81.90
2019-03-17T21:42:22.558Z,85.22
2019-03-17T21:43:22.553Z,81.90
2019-03-17T21:44:22.537Z,79.91
2019-03-17T21:45:22.529Z,85.41
2019-03-17T21:46:22.520Z,81.90
2019-03-17T21:47:22.503Z,86.45
2019-03-17T21:48:22.490Z,88.54
2019-03-17T21:49:22.481Z,86.35
2019-03-17T21:50:22.461Z,86.26
2019-03-17T21:51:22.461Z,82.75
2019-03-17T21:52:22.439Z,79.72
2019-03-17T21:53:22.426Z,79.63
2019-03-17T21:54:22.414Z,79.15
2019-03-17T21:55:22.401Z,84.46
2019-03-17T21:56:22.408Z,81.43
2019-03-17T21:57:22.395Z,85.03
2019-03-17T21:58:22.369Z,80.48
2019-03-17T21:59:22.348Z,77.73
2019-03-17T22:00:22.345Z,77.35
2019-03-17T22:01:22.327Z,77.25
2019-03-17T22:02:22.316Z,78.02
2019-03-17T22:03:22.307Z,74.03
2019-03-17T22:04:22.293Z,71.47
2019-03-17T22:05:22.279Z,68.25
2019-03-17T22:06:22.261Z,73.94
2019-03-17T22:07:22.261Z,80.67
2019-03-17T22:08:22.245Z,81.14
2019-03-17T22:09:22.240Z,74.69
2019-03-17T22:10:22.222Z,73.37
2019-03-17T22:11:22.208Z,75.74
2019-03-17T22:12:22.191Z,74.03
2019-03-17T22:13:22.189Z,75.84
2019-03-17T22:14:22.170Z,72.04
2019-03-17T22:15:22.162Z,79.44
2019-03-17T22:16:22.150Z,76.12
2019-03-17T22:17:22.136Z,76.31
2019-03-17T22:18:22.129Z,76.78
2019-03-17T22:19:22.111Z,75.64
2019-03-17T22:20:22.096Z,78.11
2019-03-17T22:21:22.083Z,75.36
2019-03-17T22:22:22.069Z,74.41
2019-03-17T22:23:22.066Z,80.10
2019-03-17T22:24:22.042Z,77.54
2019-03-17T22:25:22.053Z,73.46
2019-03-17T22:26:22.023Z,74.79
2019-03-17T22:27:22.011Z,77.45
2019-03-17T22:28:21.998Z,76.97
2019-03-17T22:29:22.000Z,73.08
2019-03-17T22:30:21.976Z,78.39
2019-03-17T22:31:21.956Z,75.64
2019-03-17T22:32:21.945Z,77.54
2019-03-17T22:33:21.936Z,77.25
2019-03-17T22:34:21.932Z,74.32
2019-03-17T22:35:21.911Z,78.30
2019-03-17T22:36:21.899Z,76.31
2019-03-17T22:37:21.896Z,75.64
2019-03-17T22:38:21.872Z,75.26
2019-03-17T22:39:21.872Z,71.76
2019-03-17T22:40:21.849Z,74.47
2019-03-17T22:41:21.835Z,76.17
2019-03-17T22:42:21.828Z,72.00
2019-03-17T22:43:21.819Z,72.77
2019-03-17T22:44:24.599Z,70.30
2019-03-17T22:45:21.804Z,71.72
2019-03-17T22:46:21.776Z,72.48
2019-03-17T22:47:21.764Z,70.49
2019-03-17T22:48:21.754Z,70.01
2019-03-17T22:49:21.745Z,69.45
2019-03-17T22:50:21.748Z,69.73
2019-03-17T22:51:21.710Z,70.11
2019-03-17T22:52:21.702Z,69.82
2019-03-17T22:53:21.689Z,71.34
2019-03-17T22:54:21.684Z,69.35
2019-03-17T22:55:21.661Z,75.79
2019-03-17T22:56:21.665Z,73.05
2019-03-17T22:57:21.636Z,72.19
2019-03-17T22:58:21.624Z,73.71
2019-03-17T22:59:21.613Z,75.42
2019-03-17T23:00:21.597Z,76.46
2019-03-17T23:01:21.600Z,75.98
2019-03-17T23:02:21.579Z,76.55
2019-03-17T23:03:21.573Z,78.83
2019-03-17T23:04:22.210Z,75.23
2019-03-17T23:05:21.634Z,76.27
2019-03-17T23:06:21.533Z,80.34
2019-03-17T23:07:21.512Z,81.10
2019-03-17T23:08:21.501Z,85.46
2019-03-17T23:09:21.487Z,79.30
2019-03-17T23:10:21.491Z,77.22
2019-03-17T23:11:21.481Z,77.31
2019-03-17T23:12:21.462Z,77.22
2019-03-17T23:13:21.442Z,81.86
2019-03-17T23:14:21.422Z,91.52
2019-03-17T23:15:21.422Z,89.63
2019-03-17T23:16:24.684Z,90.20
2019-03-17T23:17:21.391Z,90.86
2019-03-17T23:18:21.376Z,87.64
2019-03-17T23:19:21.371Z,82.81
2019-03-17T23:20:21.378Z,81.86
2019-03-17T23:21:21.345Z,87.54
2019-03-17T23:22:21.334Z,81.38
2019-03-17T23:23:21.312Z,77.97
2019-03-17T23:24:21.307Z,77.12
2019-03-17T23:25:21.294Z,81.01
2019-03-17T23:26:21.280Z,81.10
2019-03-17T23:27:21.279Z,91.90
2019-03-17T23:28:21.268Z,82.52
2019-03-17T23:29:21.245Z,80.82
2019-03-17T23:30:21.227Z,80.63
2019-03-17T23:31:21.803Z,79.30
2019-03-17T23:32:21.809Z,81.86
2019-03-17T23:33:21.193Z,75.98
2019-03-17T23:34:21.175Z,78.07
2019-03-17T23:35:21.163Z,76.65
2019-03-17T23:36:21.164Z,79.49
2019-03-17T23:37:21.140Z,75.32
2019-03-17T23:38:21.130Z,72.67
2019-03-17T23:39:21.121Z,72.19
2019-03-17T23:40:21.107Z,73.24
2019-03-17T23:41:21.106Z,70.87
2019-03-17T23:42:21.082Z,70.58
2019-03-17T23:43:21.067Z,70.11
2019-03-17T23:44:21.050Z,70.58
2019-03-17T23:45:21.050Z,69.54
2019-03-17T23:46:21.031Z,69.07
2019-03-17T23:47:21.016Z,70.49
2019-03-17T23:48:21.006Z,72.86
2019-03-17T23:49:20.998Z,70.01
2019-03-17T23:50:20.980Z,69.64
2019-03-17T23:51:20.978Z,68.79
2019-03-17T23:52:20.948Z,68.79
2019-03-17T23:53:20.942Z,68.79
2019-03-17T23:54:20.931Z,68.50
2019-03-17T23:55:20.911Z,69.35
2019-03-17T23:56:20.908Z,68.98
2019-03-17T23:57:21.899Z,70.87
2019-03-17T23:58:20.878Z,67.74
2019-03-17T23:59:20.878Z,71.06
